sensor_id;sensor_type;location;lat;lon;timestamp;pressure;altitude;pressure_sealevel;temperature;humidity
80333;BME280;69652;51.864;-2.246;2023-12-20T00:02:15;102198.81;;;7.18;78.00
80333;BME280;69652;51.864;-2.246;2023-12-20T00:04:41;102201.66;;;7.11;78.04
80333;BME280;69652;51.864;-2.246;2023-12-20T00:07:06;102203.53;;;7.11;78.04
80333;BME280;69652;51.864;-2.246;2023-12-20T00:09:32;102192.97;;;7.09;77.33
80333;BME280;69652;51.864;-2.246;2023-12-20T00:11:57;102188.16;;;7.11;77.99
80333;BME280;69652;51.864;-2.246;2023-12-20T00:14:23;102184.97;;;7.14;77.30
80333;BME280;69652;51.864;-2.246;2023-12-20T00:16:48;102185.22;;;7.13;76.69
80333;BME280;69652;51.864;-2.246;2023-12-20T00:19:14;102176.22;;;7.24;76.60
80333;BME280;69652;51.864;-2.246;2023-12-20T00:21:39;102188.81;;;7.18;77.43
80333;BME280;69652;51.864;-2.246;2023-12-20T00:24:05;102192.50;;;7.12;76.66
80333;BME280;69652;51.864;-2.246;2023-12-20T00:26:30;102190.78;;;7.06;78.04
80333;BME280;69652;51.864;-2.246;2023-12-20T00:28:56;102183.75;;;7.05;77.81
80333;BME280;69652;51.864;-2.246;2023-12-20T00:31:21;102184.88;;;7.09;77.27
80333;BME280;69652;51.864;-2.246;2023-12-20T00:33:47;102182.09;;;7.21;76.78
80333;BME280;69652;51.864;-2.246;2023-12-20T00:36:12;102181.84;;;7.22;75.90
80333;BME280;69652;51.864;-2.246;2023-12-20T00:38:38;102186.78;;;7.25;76.14
80333;BME280;69652;51.864;-2.246;2023-12-20T00:41:03;102186.53;;;7.27;76.99
80333;BME280;69652;51.864;-2.246;2023-12-20T00:43:29;102200.09;;;7.32;75.83
80333;BME280;69652;51.864;-2.246;2023-12-20T00:45:54;102197.25;;;7.39;76.14
80333;BME280;69652;51.864;-2.246;2023-12-20T00:48:20;102189.50;;;7.42;76.02
80333;BME280;69652;51.864;-2.246;2023-12-20T00:50:46;102188.00;;;7.51;76.03
80333;BME280;69652;51.864;-2.246;2023-12-20T00:53:11;102192.16;;;7.59;75.30
80333;BME280;69652;51.864;-2.246;2023-12-20T00:55:37;102186.84;;;7.64;74.97
80333;BME280;69652;51.864;-2.246;2023-12-20T00:58:03;102187.16;;;7.68;74.75
80333;BME280;69652;51.864;-2.246;2023-12-20T01:00:28;102191.25;;;7.70;74.24
80333;BME280;69652;51.864;-2.246;2023-12-20T01:02:54;102197.41;;;7.66;74.38
80333;BME280;69652;51.864;-2.246;2023-12-20T01:05:19;102207.25;;;7.55;75.35
80333;BME280;69652;51.864;-2.246;2023-12-20T01:07:48;102205.09;;;7.57;75.18
80333;BME280;69652;51.864;-2.246;2023-12-20T01:10:14;102204.03;;;7.58;75.47
80333;BME280;69652;51.864;-2.246;2023-12-20T01:12:39;102192.16;;;7.59;76.18
80333;BME280;69652;51.864;-2.246;2023-12-20T01:15:05;102185.13;;;7.58;76.37
80333;BME280;69652;51.864;-2.246;2023-12-20T01:17:30;102184.88;;;7.59;75.86
80333;BME280;69652;51.864;-2.246;2023-12-20T01:19:56;102176.78;;;7.59;75.85
80333;BME280;69652;51.864;-2.246;2023-12-20T01:22:21;102163.50;;;7.58;76.24
80333;BME280;69652;51.864;-2.246;2023-12-20T01:24:47;102172.13;;;7.55;76.63
80333;BME280;69652;51.864;-2.246;2023-12-20T01:27:12;102174.25;;;7.53;77.25
80333;BME280;69652;51.864;-2.246;2023-12-20T01:29:38;102165.91;;;7.54;76.82
80333;BME280;69652;51.864;-2.246;2023-12-20T01:32:04;102167.44;;;7.50;77.08
80333;BME280;69652;51.864;-2.246;2023-12-20T01:34:29;102176.81;;;7.43;78.30
80333;BME280;69652;51.864;-2.246;2023-12-20T01:36:55;102175.41;;;7.40;79.00
80333;BME280;69652;51.864;-2.246;2023-12-20T01:39:20;102174.34;;;7.41;77.88
80333;BME280;69652;51.864;-2.246;2023-12-20T01:41:45;102188.34;;;7.38;77.93
80333;BME280;69652;51.864;-2.246;2023-12-20T01:44:11;102187.50;;;7.38;78.58
80333;BME280;69652;51.864;-2.246;2023-12-20T01:46:36;102184.22;;;7.36;79.25
80333;BME280;69652;51.864;-2.246;2023-12-20T01:49:02;102176.63;;;7.33;79.35
80333;BME280;69652;51.864;-2.246;2023-12-20T01:51:27;102175.97;;;7.25;79.72
80333;BME280;69652;51.864;-2.246;2023-12-20T01:53:55;102178.91;;;7.24;80.46
80333;BME280;69652;51.864;-2.246;2023-12-20T01:56:23;102183.91;;;7.15;80.64
80333;BME280;69652;51.864;-2.246;2023-12-20T01:58:49;102176.38;;;7.17;80.60
80333;BME280;69652;51.864;-2.246;2023-12-20T02:01:15;102180.38;;;7.15;81.11
80333;BME280;69652;51.864;-2.246;2023-12-20T02:03:41;102171.47;;;7.14;80.45
80333;BME280;69652;51.864;-2.246;2023-12-20T02:06:07;102174.88;;;7.10;80.69
80333;BME280;69652;51.864;-2.246;2023-12-20T02:08:34;102174.06;;;7.09;80.81
80333;BME280;69652;51.864;-2.246;2023-12-20T02:11:00;102177.34;;;7.11;80.49
80333;BME280;69652;51.864;-2.246;2023-12-20T02:13:25;102174.50;;;7.18;80.59
80333;BME280;69652;51.864;-2.246;2023-12-20T02:15:52;102180.22;;;7.21;80.86
80333;BME280;69652;51.864;-2.246;2023-12-20T02:18:17;102167.94;;;7.14;81.74
80333;BME280;69652;51.864;-2.246;2023-12-20T02:20:43;102166.41;;;7.18;81.48
80333;BME280;69652;51.864;-2.246;2023-12-20T02:23:08;102170.00;;;7.23;81.69
80333;BME280;69652;51.864;-2.246;2023-12-20T02:25:34;102159.78;;;7.25;82.16
80333;BME280;69652;51.864;-2.246;2023-12-20T02:28:00;102150.59;;;7.27;81.63
80333;BME280;69652;51.864;-2.246;2023-12-20T02:30:25;102143.38;;;7.32;81.08
80333;BME280;69652;51.864;-2.246;2023-12-20T02:32:52;102145.03;;;7.33;81.35
80333;BME280;69652;51.864;-2.246;2023-12-20T02:35:18;102149.69;;;7.38;80.59
80333;BME280;69652;51.864;-2.246;2023-12-20T02:37:44;102142.75;;;7.42;79.92
80333;BME280;69652;51.864;-2.246;2023-12-20T02:40:09;102135.19;;;7.44;80.20
80333;BME280;69652;51.864;-2.246;2023-12-20T02:42:35;102140.44;;;7.50;80.51
80333;BME280;69652;51.864;-2.246;2023-12-20T02:45:01;102141.25;;;7.51;80.03
80333;BME280;69652;51.864;-2.246;2023-12-20T02:47:26;102146.16;;;7.54;79.93
80333;BME280;69652;51.864;-2.246;2023-12-20T02:49:52;102132.91;;;7.52;80.67
80333;BME280;69652;51.864;-2.246;2023-12-20T02:52:18;102147.22;;;7.53;80.60
80333;BME280;69652;51.864;-2.246;2023-12-20T02:54:43;102149.69;;;7.54;80.17
80333;BME280;69652;51.864;-2.246;2023-12-20T02:57:09;102160.75;;;7.53;80.71
80333;BME280;69652;51.864;-2.246;2023-12-20T02:59:34;102161.03;;;7.56;80.97
80333;BME280;69652;51.864;-2.246;2023-12-20T03:02:00;102159.75;;;7.59;80.36
80333;BME280;69652;51.864;-2.246;2023-12-20T03:04:25;102154.53;;;7.52;81.22
80333;BME280;69652;51.864;-2.246;2023-12-20T03:06:50;102169.44;;;7.55;80.65
80333;BME280;69652;51.864;-2.246;2023-12-20T03:09:16;102150.00;;;7.58;80.83
80333;BME280;69652;51.864;-2.246;2023-12-20T03:11:41;102141.97;;;7.63;80.67
80333;BME280;69652;51.864;-2.246;2023-12-20T03:14:07;102139.59;;;7.67;79.96
80333;BME280;69652;51.864;-2.246;2023-12-20T03:16:32;102141.53;;;7.71;80.10
80333;BME280;69652;51.864;-2.246;2023-12-20T03:18:58;102141.53;;;7.71;80.19
80333;BME280;69652;51.864;-2.246;2023-12-20T03:21:23;102139.91;;;7.70;79.84
80333;BME280;69652;51.864;-2.246;2023-12-20T03:23:49;102139.59;;;7.67;79.73
80333;BME280;69652;51.864;-2.246;2023-12-20T03:26:14;102128.84;;;7.72;79.66
80333;BME280;69652;51.864;-2.246;2023-12-20T03:28:40;102116.47;;;7.76;80.24
80333;BME280;69652;51.864;-2.246;2023-12-20T03:31:05;102124.09;;;7.79;79.16
80333;BME280;69652;51.864;-2.246;2023-12-20T03:33:31;102129.22;;;7.80;79.74
80333;BME280;69652;51.864;-2.246;2023-12-20T03:35:56;102130.84;;;7.81;79.88
80333;BME280;69652;51.864;-2.246;2023-12-20T03:38:22;102124.38;;;7.82;79.74
80333;BME280;69652;51.864;-2.246;2023-12-20T03:40:49;102128.72;;;7.83;79.90
80333;BME280;69652;51.864;-2.246;2023-12-20T03:43:15;102126.84;;;7.84;79.47
80333;BME280;69652;51.864;-2.246;2023-12-20T03:45:42;102119.88;;;7.88;79.28
80333;BME280;69652;51.864;-2.246;2023-12-20T03:48:07;102124.22;;;7.89;79.23
80333;BME280;69652;51.864;-2.246;2023-12-20T03:50:34;102113.66;;;7.87;79.36
80333;BME280;69652;51.864;-2.246;2023-12-20T03:52:59;102110.13;;;7.87;79.76
80333;BME280;69652;51.864;-2.246;2023-12-20T03:55:25;102104.97;;;7.85;79.85
80333;BME280;69652;51.864;-2.246;2023-12-20T03:57:50;102109.88;;;7.88;79.83
80333;BME280;69652;51.864;-2.246;2023-12-20T04:00:16;102097.44;;;7.87;79.83
80333;BME280;69652;51.864;-2.246;2023-12-20T04:02:42;102108.75;;;7.84;80.30
80333;BME280;69652;51.864;-2.246;2023-12-20T04:05:08;102105.53;;;7.87;80.23
80333;BME280;69652;51.864;-2.246;2023-12-20T04:07:35;102105.78;;;7.86;80.31
80333;BME280;69652;51.864;-2.246;2023-12-20T04:10:00;102111.19;;;7.86;80.66
80333;BME280;69652;51.864;-2.246;2023-12-20T04:12:27;102099.81;;;7.84;80.59
80333;BME280;69652;51.864;-2.246;2023-12-20T04:14:53;102108.50;;;7.86;80.50
80333;BME280;69652;51.864;-2.246;2023-12-20T04:17:18;102104.97;;;7.85;80.15
80333;BME280;69652;51.864;-2.246;2023-12-20T04:19:44;102094.72;;;7.87;80.90
80333;BME280;69652;51.864;-2.246;2023-12-20T04:22:09;102115.53;;;7.87;80.69
80333;BME280;69652;51.864;-2.246;2023-12-20T04:24:35;102113.31;;;7.84;80.97
80333;BME280;69652;51.864;-2.246;2023-12-20T04:27:01;102106.59;;;7.86;81.09
80333;BME280;69652;51.864;-2.246;2023-12-20T04:29:26;102105.78;;;7.86;80.06
80333;BME280;69652;51.864;-2.246;2023-12-20T04:31:52;102113.66;;;7.87;81.10
80333;BME280;69652;51.864;-2.246;2023-12-20T04:34:18;102110.47;;;7.90;81.06
80333;BME280;69652;51.864;-2.246;2023-12-20T04:36:43;102116.66;;;7.91;80.36
80333;BME280;69652;51.864;-2.246;2023-12-20T04:39:09;102107.75;;;7.90;80.32
80333;BME280;69652;51.864;-2.246;2023-12-20T04:41:35;102104.78;;;7.92;80.56
80333;BME280;69652;51.864;-2.246;2023-12-20T04:44:00;102108.28;;;7.92;81.14
80333;BME280;69652;51.864;-2.246;2023-12-20T04:46:26;102104.78;;;7.92;81.00
80333;BME280;69652;51.864;-2.246;2023-12-20T04:48:52;102108.53;;;7.91;81.54
80333;BME280;69652;51.864;-2.246;2023-12-20T04:51:17;102100.44;;;7.91;81.90
80333;BME280;69652;51.864;-2.246;2023-12-20T04:53:43;102095.31;;;7.89;81.75
80333;BME280;69652;51.864;-2.246;2023-12-20T04:56:08;102096.13;;;7.90;81.36
80333;BME280;69652;51.864;-2.246;2023-12-20T04:58:34;102074.75;;;7.88;81.62
80333;BME280;69652;51.864;-2.246;2023-12-20T05:00:59;102082.84;;;7.88;81.55
80333;BME280;69652;51.864;-2.246;2023-12-20T05:03:25;102076.88;;;7.86;81.80
80333;BME280;69652;51.864;-2.246;2023-12-20T05:05:50;102073.91;;;7.88;82.19
80333;BME280;69652;51.864;-2.246;2023-12-20T05:08:16;102073.41;;;7.91;82.30
80333;BME280;69652;51.864;-2.246;2023-12-20T05:10:41;102070.97;;;7.89;81.66
80333;BME280;69652;51.864;-2.246;2023-12-20T05:13:06;102063.84;;;7.83;81.98
80333;BME280;69652;51.864;-2.246;2023-12-20T05:15:33;102052.94;;;7.73;83.07
80333;BME280;69652;51.864;-2.246;2023-12-20T05:17:58;102040.41;;;7.67;82.79
80333;BME280;69652;51.864;-2.246;2023-12-20T05:20:24;102041.19;;;7.63;83.15
80333;BME280;69652;51.864;-2.246;2023-12-20T05:22:49;102048.22;;;7.64;83.35
80333;BME280;69652;51.864;-2.246;2023-12-20T05:25:15;102035.19;;;7.60;84.09
80333;BME280;69652;51.864;-2.246;2023-12-20T05:27:40;102049.53;;;7.61;83.51
80333;BME280;69652;51.864;-2.246;2023-12-20T05:30:06;102042.69;;;7.53;83.76
80333;BME280;69652;51.864;-2.246;2023-12-20T05:32:31;102041.34;;;7.56;83.74
80333;BME280;69652;51.864;-2.246;2023-12-20T05:34:57;102028.94;;;7.55;83.43
80333;BME280;69652;51.864;-2.246;2023-12-20T05:37:22;102038.66;;;7.56;83.59
80333;BME280;69652;51.864;-2.246;2023-12-20T05:39:48;102041.06;;;7.52;83.79
80333;BME280;69652;51.864;-2.246;2023-12-20T05:42:13;102041.06;;;7.52;83.79
80333;BME280;69652;51.864;-2.246;2023-12-20T05:44:39;102049.72;;;7.54;83.85
80333;BME280;69652;51.864;-2.246;2023-12-20T05:47:04;102036.25;;;7.59;84.92
80333;BME280;69652;51.864;-2.246;2023-12-20T05:49:30;102042.00;;;7.63;84.37
80333;BME280;69652;51.864;-2.246;2023-12-20T05:51:55;102039.34;;;7.68;84.23
80333;BME280;69652;51.864;-2.246;2023-12-20T05:54:21;102034.00;;;7.73;84.41
80333;BME280;69652;51.864;-2.246;2023-12-20T05:56:47;102029.22;;;7.80;84.27
80333;BME280;69652;51.864;-2.246;2023-12-20T05:59:12;102039.53;;;7.83;83.16
80333;BME280;69652;51.864;-2.246;2023-12-20T06:01:38;102034.19;;;7.88;84.02
80333;BME280;69652;51.864;-2.246;2023-12-20T06:04:03;102033.66;;;7.91;83.98
80333;BME280;69652;51.864;-2.246;2023-12-20T06:06:29;102043.97;;;7.94;83.36
80333;BME280;69652;51.864;-2.246;2023-12-20T06:08:55;102041.63;;;8.03;83.09
80333;BME280;69652;51.864;-2.246;2023-12-20T06:11:21;102049.81;;;8.08;82.72
80333;BME280;69652;51.864;-2.246;2023-12-20T06:13:46;102033.94;;;8.17;82.94
80333;BME280;69652;51.864;-2.246;2023-12-20T06:16:12;102029.16;;;8.24;82.21
80333;BME280;69652;51.864;-2.246;2023-12-20T06:18:37;102044.31;;;8.25;82.00
80333;BME280;69652;51.864;-2.246;2023-12-20T06:21:03;102038.22;;;8.35;82.07
80333;BME280;69652;51.864;-2.246;2023-12-20T06:23:29;102029.94;;;8.46;81.23
80333;BME280;69652;51.864;-2.246;2023-12-20T06:25:55;102037.84;;;8.53;80.68
80333;BME280;69652;51.864;-2.246;2023-12-20T06:28:20;102031.91;;;8.56;80.49
80333;BME280;69652;51.864;-2.246;2023-12-20T06:30:45;102043.88;;;8.60;80.00
80333;BME280;69652;51.864;-2.246;2023-12-20T06:33:14;102038.47;;;8.60;80.34
80333;BME280;69652;51.864;-2.246;2023-12-20T06:35:39;102039.28;;;8.60;80.23
80333;BME280;69652;51.864;-2.246;2023-12-20T06:38:05;102045.66;;;8.49;80.59
80333;BME280;69652;51.864;-2.246;2023-12-20T06:40:30;102041.28;;;8.43;81.38
80333;BME280;69652;51.864;-2.246;2023-12-20T06:42:56;102030.75;;;8.47;80.79
80333;BME280;69652;51.864;-2.246;2023-12-20T06:45:21;102026.16;;;8.47;80.70
80333;BME280;69652;51.864;-2.246;2023-12-20T06:47:47;102009.94;;;8.47;81.02
80333;BME280;69652;51.864;-2.246;2023-12-20T06:50:12;102004.28;;;8.49;80.74
80333;BME280;69652;51.864;-2.246;2023-12-20T06:52:38;101999.09;;;8.47;80.73
80333;BME280;69652;51.864;-2.246;2023-12-20T06:55:03;102000.69;;;8.43;81.34
80333;BME280;69652;51.864;-2.246;2023-12-20T06:57:29;102005.09;;;8.49;80.79
80333;BME280;69652;51.864;-2.246;2023-12-20T06:59:55;102018.06;;;8.52;81.10
80333;BME280;69652;51.864;-2.246;2023-12-20T07:02:21;102009.50;;;8.60;81.10
80333;BME280;69652;51.864;-2.246;2023-12-20T07:04:47;102007.38;;;8.67;80.53
80333;BME280;69652;51.864;-2.246;2023-12-20T07:07:13;102002.03;;;8.73;81.21
80333;BME280;69652;51.864;-2.246;2023-12-20T07:09:38;102003.94;;;8.77;81.02
80333;BME280;69652;51.864;-2.246;2023-12-20T07:12:06;102005.88;;;8.82;80.86
80333;BME280;69652;51.864;-2.246;2023-12-20T07:14:31;102003.16;;;8.82;81.01
80333;BME280;69652;51.864;-2.246;2023-12-20T07:16:57;102009.66;;;8.81;81.11
80333;BME280;69652;51.864;-2.246;2023-12-20T07:19:22;101992.06;;;8.83;81.01
80333;BME280;69652;51.864;-2.246;2023-12-20T07:21:48;101998.03;;;8.85;80.74
80333;BME280;69652;51.864;-2.246;2023-12-20T07:24:13;102010.78;;;8.85;80.79
80333;BME280;69652;51.864;-2.246;2023-12-20T07:26:39;101999.38;;;8.83;80.99
80333;BME280;69652;51.864;-2.246;2023-12-20T07:29:05;102008.06;;;8.85;81.08
80333;BME280;69652;51.864;-2.246;2023-12-20T07:31:32;102008.84;;;8.85;81.18
80333;BME280;69652;51.864;-2.246;2023-12-20T07:33:57;102018.09;;;8.89;80.97
80333;BME280;69652;51.864;-2.246;2023-12-20T07:36:23;102018.91;;;8.90;81.38
80333;BME280;69652;51.864;-2.246;2023-12-20T07:38:48;102018.91;;;8.90;80.90
80333;BME280;69652;51.864;-2.246;2023-12-20T07:41:14;102032.72;;;8.88;80.77
80333;BME280;69652;51.864;-2.246;2023-12-20T07:43:41;102029.19;;;8.88;81.10
80333;BME280;69652;51.864;-2.246;2023-12-20T07:46:07;102029.75;;;8.90;81.79
80333;BME280;69652;51.864;-2.246;2023-12-20T07:48:36;102033.56;;;8.94;81.09
80333;BME280;69652;51.864;-2.246;2023-12-20T07:51:02;102027.09;;;8.95;81.03
80333;BME280;69652;51.864;-2.246;2023-12-20T07:53:27;102032.50;;;8.95;80.99
80333;BME280;69652;51.864;-2.246;2023-12-20T07:55:53;102036.53;;;8.92;81.27
80333;BME280;69652;51.864;-2.246;2023-12-20T07:58:19;102035.72;;;8.92;81.69
80333;BME280;69652;51.864;-2.246;2023-12-20T08:00:44;102037.09;;;8.94;81.29
80333;BME280;69652;51.864;-2.246;2023-12-20T08:03:10;102044.41;;;8.94;81.28
80333;BME280;69652;51.864;-2.246;2023-12-20T08:05:36;102052.78;;;8.92;81.24
80333;BME280;69652;51.864;-2.246;2023-12-20T08:08:01;102047.63;;;8.91;81.36
80333;BME280;69652;51.864;-2.246;2023-12-20T08:10:27;102060.09;;;8.92;81.52
80333;BME280;69652;51.864;-2.246;2023-12-20T08:12:55;102069.59;;;8.94;81.12
80333;BME280;69652;51.864;-2.246;2023-12-20T08:15:20;102058.22;;;8.97;81.22
80333;BME280;69652;51.864;-2.246;2023-12-20T08:17:46;102069.09;;;9.02;80.98
80333;BME280;69652;51.864;-2.246;2023-12-20T08:20:11;102077.00;;;9.09;80.85
80333;BME280;69652;51.864;-2.246;2023-12-20T08:22:36;102060.72;;;9.04;80.75
80333;BME280;69652;51.864;-2.246;2023-12-20T08:25:02;102060.47;;;9.05;81.01
80333;BME280;69652;51.864;-2.246;2023-12-20T08:27:28;102068.84;;;9.04;81.33
80333;BME280;69652;51.864;-2.246;2023-12-20T08:29:53;102065.28;;;8.98;81.67
80333;BME280;69652;51.864;-2.246;2023-12-20T08:32:18;102069.88;;;8.98;81.65
80333;BME280;69652;51.864;-2.246;2023-12-20T08:34:44;102070.69;;;8.98;82.21
80333;BME280;69652;51.864;-2.246;2023-12-20T08:37:09;102057.41;;;8.97;81.77
80333;BME280;69652;51.864;-2.246;2023-12-20T08:39:35;102063.38;;;8.94;81.80
80333;BME280;69652;51.864;-2.246;2023-12-20T08:42:00;102053.34;;;8.94;82.30
80333;BME280;69652;51.864;-2.246;2023-12-20T08:44:25;102064.47;;;8.98;82.00
80333;BME280;69652;51.864;-2.246;2023-12-20T08:46:51;102054.22;;;9.05;81.57
80333;BME280;69652;51.864;-2.246;2023-12-20T08:49:16;102049.66;;;9.11;81.29
80333;BME280;69652;51.864;-2.246;2023-12-20T08:51:43;102054.81;;;9.12;81.29
80333;BME280;69652;51.864;-2.246;2023-12-20T08:54:09;102066.78;;;9.16;81.61
80333;BME280;69652;51.864;-2.246;2023-12-20T08:56:35;102034.00;;;9.18;81.71
80333;BME280;69652;51.864;-2.246;2023-12-20T08:59:00;102045.53;;;9.03;83.29
80333;BME280;69652;51.864;-2.246;2023-12-20T09:01:26;102040.66;;;9.00;83.20
80333;BME280;69652;51.864;-2.246;2023-12-20T09:03:51;102049.03;;;8.98;83.34
80333;BME280;69652;51.864;-2.246;2023-12-20T09:06:17;102042.78;;;8.98;83.58
80333;BME280;69652;51.864;-2.246;2023-12-20T09:08:42;102043.59;;;8.98;83.73
80333;BME280;69652;51.864;-2.246;2023-12-20T09:11:08;102042.78;;;8.98;84.21
80333;BME280;69652;51.864;-2.246;2023-12-20T09:13:33;102047.94;;;8.99;83.71
80333;BME280;69652;51.864;-2.246;2023-12-20T09:15:59;102052.28;;;9.00;84.06
80333;BME280;69652;51.864;-2.246;2023-12-20T09:18:24;102051.47;;;9.00;84.36
80333;BME280;69652;51.864;-2.246;2023-12-20T09:20:50;102029.03;;;9.04;84.37
80333;BME280;69652;51.864;-2.246;2023-12-20T09:23:16;102021.75;;;9.10;83.82
80333;BME280;69652;51.864;-2.246;2023-12-20T09:25:42;102036.97;;;9.16;83.83
80333;BME280;69652;51.864;-2.246;2023-12-20T09:28:07;102032.94;;;9.19;84.02
80333;BME280;69652;51.864;-2.246;2023-12-20T09:30:33;102032.13;;;9.18;83.78
80333;BME280;69652;51.864;-2.246;2023-12-20T09:32:58;102042.69;;;9.20;83.48
80333;BME280;69652;51.864;-2.246;2023-12-20T09:35:24;102043.22;;;9.22;83.46
80333;BME280;69652;51.864;-2.246;2023-12-20T09:37:49;102049.19;;;9.24;83.33
80333;BME280;69652;51.864;-2.246;2023-12-20T09:40:18;102050.31;;;9.28;83.19
80333;BME280;69652;51.864;-2.246;2023-12-20T09:42:57;102049.25;;;9.34;83.52
80333;BME280;69652;51.864;-2.246;2023-12-20T09:45:23;102036.53;;;9.34;83.13
80333;BME280;69652;51.864;-2.246;2023-12-20T09:47:58;102042.50;;;9.31;83.47
80333;BME280;69652;51.864;-2.246;2023-12-20T09:50:23;102037.88;;;9.32;83.16
80333;BME280;69652;51.864;-2.246;2023-12-20T09:52:51;102036.53;;;9.34;83.64
80333;BME280;69652;51.864;-2.246;2023-12-20T09:55:18;102038.19;;;9.40;82.93
80333;BME280;69652;51.864;-2.246;2023-12-20T09:57:45;102050.94;;;9.45;82.98
80333;BME280;69652;51.864;-2.246;2023-12-20T10:00:13;102046.38;;;9.51;82.43
80333;BME280;69652;51.864;-2.246;2023-12-20T10:02:44;102056.97;;;9.52;82.74
80333;BME280;69652;51.864;-2.246;2023-12-20T10:05:16;102054.00;;;9.59;82.63
80333;BME280;69652;51.864;-2.246;2023-12-20T10:07:41;102061.63;;;9.67;82.33
80333;BME280;69652;51.864;-2.246;2023-12-20T10:10:07;102062.19;;;9.74;82.37
80333;BME280;69652;51.864;-2.246;2023-12-20T10:12:34;102051.94;;;9.86;81.25
80333;BME280;69652;51.864;-2.246;2023-12-20T10:14:59;102046.81;;;9.95;79.92
80333;BME280;69652;51.864;-2.246;2023-12-20T10:17:27;102041.69;;;10.03;80.76
80333;BME280;69652;51.864;-2.246;2023-12-20T10:19:54;102018.09;;;10.04;80.02
80333;BME280;69652;51.864;-2.246;2023-12-20T10:22:19;102021.63;;;10.09;80.25
80333;BME280;69652;51.864;-2.246;2023-12-20T10:24:45;102016.25;;;10.20;78.76
80333;BME280;69652;51.864;-2.246;2023-12-20T10:27:12;102025.50;;;10.29;79.55
80333;BME280;69652;51.864;-2.246;2023-12-20T10:29:38;102018.44;;;10.33;78.54
80333;BME280;69652;51.864;-2.246;2023-12-20T10:32:24;102004.06;;;10.32;78.76
80333;BME280;69652;51.864;-2.246;2023-12-20T10:34:50;102003.00;;;10.38;78.16
80333;BME280;69652;51.864;-2.246;2023-12-20T10:37:16;101989.44;;;10.38;77.46
80333;BME280;69652;51.864;-2.246;2023-12-20T10:39:43;101984.81;;;10.44;78.44
80333;BME280;69652;51.864;-2.246;2023-12-20T10:42:13;101985.34;;;10.41;78.10
80333;BME280;69652;51.864;-2.246;2023-12-20T10:44:39;101973.41;;;10.42;78.10
80333;BME280;69652;51.864;-2.246;2023-12-20T10:47:05;101944.91;;;10.34;78.25
80333;BME280;69652;51.864;-2.246;2023-12-20T10:49:35;101950.06;;;10.31;78.22
80333;BME280;69652;51.864;-2.246;2023-12-20T10:52:02;101966.63;;;10.34;78.43
80333;BME280;69652;51.864;-2.246;2023-12-20T10:54:29;101969.88;;;10.31;78.34
80333;BME280;69652;51.864;-2.246;2023-12-20T10:56:57;101957.13;;;10.32;78.33
80333;BME280;69652;51.864;-2.246;2023-12-20T10:59:23;101944.63;;;10.31;77.88
80333;BME280;69652;51.864;-2.246;2023-12-20T11:01:50;101940.84;;;10.32;78.83
80333;BME280;69652;51.864;-2.246;2023-12-20T11:04:22;101934.88;;;10.25;78.38
80333;BME280;69652;51.864;-2.246;2023-12-20T11:06:54;101938.13;;;10.22;78.98
80333;BME280;69652;51.864;-2.246;2023-12-20T11:09:24;101935.41;;;10.22;79.19
80333;BME280;69652;51.864;-2.246;2023-12-20T11:12:18;101940.84;;;10.22;79.15
80333;BME280;69652;51.864;-2.246;2023-12-20T11:14:53;101922.94;;;10.26;78.40
80333;BME280;69652;51.864;-2.246;2023-12-20T11:17:21;101931.88;;;10.31;79.01
80333;BME280;69652;51.864;-2.246;2023-12-20T11:22:21;101921.28;;;10.40;78.15
80333;BME280;69652;51.864;-2.246;2023-12-20T11:24:48;101915.59;;;10.31;78.88
80333;BME280;69652;51.864;-2.246;2023-12-20T11:27:14;101908.28;;;10.32;78.69
80333;BME280;69652;51.864;-2.246;2023-12-20T11:29:40;101886.00;;;10.30;78.95
80333;BME280;69652;51.864;-2.246;2023-12-20T11:34:55;101872.19;;;10.31;78.33
80333;BME280;69652;51.864;-2.246;2023-12-20T11:37:21;101876.50;;;10.42;78.13
80333;BME280;69652;51.864;-2.246;2023-12-20T11:40:00;101864.00;;;10.57;76.90
80333;BME280;69652;51.864;-2.246;2023-12-20T11:42:27;101849.03;;;10.64;76.90
80333;BME280;69652;51.864;-2.246;2023-12-20T11:44:53;101861.75;;;10.74;76.48
80333;BME280;69652;51.864;-2.246;2023-12-20T11:47:19;101848.72;;;10.76;77.09
80333;BME280;69652;51.864;-2.246;2023-12-20T11:49:48;101836.81;;;10.72;76.62
80333;BME280;69652;51.864;-2.246;2023-12-20T11:52:14;101822.81;;;11.04;76.44
80333;BME280;69652;51.864;-2.246;2023-12-20T11:54:39;101809.38;;;11.67;73.94
80333;BME280;69652;51.864;-2.246;2023-12-20T11:57:05;101806.69;;;11.96;73.33
80333;BME280;69652;51.864;-2.246;2023-12-20T11:59:31;101816.53;;;12.20;71.52
80333;BME280;69652;51.864;-2.246;2023-12-20T12:01:56;101807.03;;;12.18;72.51
80333;BME280;69652;51.864;-2.246;2023-12-20T12:04:26;101795.53;;;11.97;72.47
80333;BME280;69652;51.864;-2.246;2023-12-20T12:06:52;101796.81;;;11.76;73.27
80333;BME280;69652;51.864;-2.246;2023-12-20T12:09:17;101801.56;;;11.55;73.45
80333;BME280;69652;51.864;-2.246;2023-12-20T12:11:43;101801.75;;;11.30;73.74
80333;BME280;69652;51.864;-2.246;2023-12-20T12:14:09;101799.06;;;11.25;74.90
80333;BME280;69652;51.864;-2.246;2023-12-20T12:16:35;101784.16;;;11.17;74.86
80333;BME280;69652;51.864;-2.246;2023-12-20T12:19:01;101792.59;;;11.15;74.98
80333;BME280;69652;51.864;-2.246;2023-12-20T12:21:26;101794.50;;;11.15;74.87
80333;BME280;69652;51.864;-2.246;2023-12-20T12:23:52;101788.25;;;11.09;74.98
80333;BME280;69652;51.864;-2.246;2023-12-20T12:26:18;101795.63;;;11.09;75.56
80333;BME280;69652;51.864;-2.246;2023-12-20T12:28:44;101788.25;;;11.14;74.51
80333;BME280;69652;51.864;-2.246;2023-12-20T12:31:13;101780.03;;;11.25;74.33
80333;BME280;69652;51.864;-2.246;2023-12-20T12:33:42;101784.09;;;11.27;74.27
80333;BME280;69652;51.864;-2.246;2023-12-20T12:36:10;101780.81;;;11.30;73.67
80333;BME280;69652;51.864;-2.246;2023-12-20T12:38:36;101790.31;;;11.33;74.16
80333;BME280;69652;51.864;-2.246;2023-12-20T12:41:02;101777.25;;;11.35;73.82
80333;BME280;69652;51.864;-2.246;2023-12-20T12:43:27;101776.97;;;11.36;74.04
80333;BME280;69652;51.864;-2.246;2023-12-20T12:45:53;101776.97;;;11.36;74.24
80333;BME280;69652;51.864;-2.246;2023-12-20T12:48:19;101764.47;;;11.35;74.39